Time;durP1;ratioP1;P1;durP2;ratioP2;P2;SDS_P1;SDS_P2;PMS_P1;PMS_P2;Temp;Humidity;BMP_temperature;BMP_pressure;BME280_temperature;BME280_humidity;BME280_pressure;Samples;Min_cycle;Max_cycle;Signal;HPM_P1;HPM_P2
2022/05/27 00:00:05;;;;;;;;;;;;;;;;;;12578770;28;19908;-78
2022/05/27 00:06:07;;;;;;;;;;;;;;;;;;12597570;28;20274;-78
2022/05/27 00:12:09;;;;;;;;;;;;;;;;;;12595727;28;20392;-78
2022/05/27 00:18:10;;;;;;;;;;;;;;;;;;12595450;28;19908;-78
2022/05/27 00:24:12;;;;;;;;;;;;;;;;;;12595229;28;19908;-78
2022/05/27 00:30:13;;;;;;;;;;;;;;;;;;12577395;28;19917;-78
2022/05/27 00:36:15;;;;;;;;;;;;;;;;;;12595113;28;19924;-77
2022/05/27 00:42:16;;;;;;;;;;;;;;;;;;12560393;28;19919;-79
2022/05/27 00:48:18;;;;;;;;;;;;;;;;;;12594297;28;19912;-78
2022/05/27 00:54:19;;;;;;;;;;;;;;;;;;12594420;28;20369;-78
2022/05/27 01:00:21;;;;;;;;;;;;;;;;;;12576318;28;19908;-78
2022/05/27 01:06:22;;;;;;;;;;;;;;;;;;12559832;28;20380;-79
2022/05/27 01:12:24;;;;;;;;;;;;;;;;;;12600823;28;20403;-79
2022/05/27 01:20:18;;;;;;;;;;;;;;;;;;12604902;28;19912;-79
2022/05/27 01:24:47;;;;;;;;;;;;;;;;;;12604430;28;19908;-78
2022/05/27 01:30:48;;;;;;;;;;;;;;;;;;12585374;28;19916;-79
2022/05/27 01:36:50;;;;;;;;;;;;;;;;;;12552822;28;19921;-78
2022/05/27 01:42:51;;;;;;;;;;;;;;;;;;12552119;28;20336;-79
2022/05/27 01:48:53;;;;;;;;;;;;;;;;;;12551694;28;20366;-78
2022/05/27 01:54:55;;;;;;;;;;;;;;;;;;12552721;28;19916;-79
2022/05/27 02:00:56;;;;;;;;;;;;;;;;;;12551457;28;19916;-78
2022/05/27 02:06:58;;;;;;;;;;;;;;;;;;12552012;28;19916;-78
2022/05/27 02:12:59;;;;;;;;;;;;;;;;;;12550358;28;19969;-78
2022/05/27 02:19:01;;;;;;;;;;;;;;;;;;12550623;28;20365;-78
2022/05/27 02:25:02;;;;;;;;;;;;;;;;;;12548946;28;19916;-79
2022/05/27 02:31:03;;;;;;;;;;;;;;;;;;12549764;28;19917;-79
2022/05/27 02:37:05;;;;;;;;;;;;;;;;;;12550114;28;19921;-79
2022/05/27 02:43:07;;;;;;;;;;;;;;;;;;12550331;28;19908;-79
2022/05/27 02:49:08;;;;;;;;;;;;;;;;;;12549441;28;19917;-78
2022/05/27 02:55:10;;;;;;;;;;;;;;;;;;12548063;28;19916;-78
2022/05/27 03:01:11;;;;;;;;;;;;;;;;;;12549310;28;19916;-79
2022/05/27 03:07:13;;;;;;;;;;;;;;;;;;12548499;28;19913;-79
2022/05/27 03:13:14;;;;;;;;;;;;;;;;;;12549105;28;19916;-78
2022/05/27 03:19:16;;;;;;;;;;;;;;;;;;12547336;28;19909;-79
2022/05/27 03:25:17;;;;;;;;;;;;;;;;;;12548489;28;19909;-78
2022/05/27 03:31:18;;;;;;;;;;;;;;;;;;12546532;28;20366;-78
2022/05/27 03:37:20;;;;;;;;;;;;;;;;;;12595050;28;19927;-78
2022/05/27 03:43:22;;;;;;;;;;;;;;;;;;12596969;28;19915;-77
2022/05/27 03:49:23;;;;;;;;;;;;;;;;;;12579028;28;19920;-79
2022/05/27 03:55:25;;;;;;;;;;;;;;;;;;12578653;28;19909;-78
2022/05/27 04:01:29;;;;;;;;;;;;;;;;;;12578659;28;19935;-79
2022/05/27 04:07:30;;;;;;;;;;;;;;;;;;12561201;28;19912;-78
2022/05/27 04:13:32;;;;;;;;;;;;;;;;;;12577267;28;19916;-79
2022/05/27 04:19:33;;;;;;;;;;;;;;;;;;12577558;28;19908;-79
2022/05/27 04:25:34;;;;;;;;;;;;;;;;;;12595194;28;19909;-79
2022/05/27 04:31:36;;;;;;;;;;;;;;;;;;12577291;28;19943;-78
2022/05/27 04:37:37;;;;;;;;;;;;;;;;;;12526965;28;20404;-79
2022/05/27 04:43:39;;;;;;;;;;;;;;;;;;12543351;28;19920;-79
2022/05/27 04:49:56;;;;;;;;;;;;;;;;;;12543997;28;19917;-79
2022/05/27 04:55:57;;;;;;;;;;;;;;;;;;12543021;28;19920;-78
2022/05/27 05:01:59;;;;;;;;;;;;;;;;;;12543528;28;19909;-78
2022/05/27 05:08:00;;;;;;;;;;;;;;;;;;12543439;28;20428;-78
2022/05/27 05:14:02;;;;;;;;;;;;;;;;;;12542874;28;19917;-78
2022/05/27 05:20:04;;;;;;;;;;;;;;;;;;12542757;28;19928;-78
2022/05/27 05:26:06;;;;;;;;;;;;;;;;;;12542567;28;19909;-78
2022/05/27 05:32:07;;;;;;;;;;;;;;;;;;12546259;28;20297;-78
2022/05/27 05:38:09;;;;;;;;;;;;;;;;;;12572710;28;19912;-81
2022/05/27 05:44:11;;;;;;;;;;;;;;;;;;12568799;28;19916;-79
2022/05/27 05:50:12;;;;;;;;;;;;;;;;;;12565980;28;19916;-80
2022/05/27 05:56:14;;;;;;;;;;;;;;;;;;12541452;28;19909;-80
2022/05/27 06:02:16;;;;;;;;;;;;;;;;;;12572408;28;20393;-80
2022/05/27 06:08:21;;;;;;;;;;;;;;;;;;12552193;28;19943;-80
2022/05/27 06:14:22;;;;;;;;;;;;;;;;;;12556956;28;19916;-81
2022/05/27 06:20:23;;;;;;;;;;;;;;;;;;12554613;28;19909;-80
2022/05/27 06:26:25;;;;;;;;;;;;;;;;;;12521456;28;20289;-80
2022/05/27 06:38:47;;;;;;;;;;;;;;;;;;12540400;28;19920;-80
2022/05/27 06:44:48;;;;;;;;;;;;;;;;;;12567462;28;20316;-79
2022/05/27 06:50:49;;;;;;;;;;;;;;;;;;12565755;28;19916;-80
2022/05/27 06:56:52;;;;;;;;;;;;;;;;;;12575805;28;19913;-79
2022/05/27 07:02:54;;;;;;;;;;;;;;;;;;12543661;28;19913;-80
2022/05/27 07:08:55;;;;;;;;;;;;;;;;;;12531973;28;20217;-81
2022/05/27 07:14:57;;;;;;;;;;;;;;;;;;12571750;28;20297;-81
2022/05/27 07:20:58;;;;;;;;;;;;;;;;;;12547580;28;20330;-83
2022/05/27 07:27:00;;;;;;;;;;;;;;;;;;12576035;28;19913;-81
2022/05/27 07:33:01;;;;;;;;;;;;;;;;;;12546218;28;19917;-81
2022/05/27 07:39:03;;;;;;;;;;;;;;;;;;12576742;28;20377;-81
2022/05/27 07:45:05;;;;;;;;;;;;;;;;;;12556276;28;19915;-81
2022/05/27 07:51:06;;;;;;;;;;;;;;;;;;12563529;28;19917;-81
2022/05/27 07:57:23;;;;;;;;;;;;;;;;;;12558917;28;19912;-83
2022/05/27 08:03:25;;;;;;;;;;;;;;;;;;12550632;28;19919;-80
2022/05/27 08:09:26;;;;;;;;;;;;;;;;;;12558047;28;19936;-83
2022/05/27 08:15:28;;;;;;;;;;;;;;;;;;12554036;28;19926;-85
2022/05/27 08:21:29;;;;;;;;;;;;;;;;;;12571254;28;19908;-86
2022/05/27 08:27:31;;;;;;;;;;;;;;;;;;12549308;28;19912;-83
2022/05/27 08:39:53;;;;;;;;;;;;;;;;;;12550120;28;19912;-86
2022/05/27 08:45:54;;;;;;;;;;;;;;;;;;12554569;28;19909;-85
2022/05/27 08:51:56;;;;;;;;;;;;;;;;;;12561823;28;19921;-84
2022/05/27 09:04:18;;;;;;;;;;;;;;;;;;12566927;28;19913;-85
2022/05/27 09:10:19;;;;;;;;;;;;;;;;;;12564964;28;19921;-84
2022/05/27 09:16:21;;;;;;;;;;;;;;;;;;12572126;28;20075;-86
2022/05/27 09:22:22;;;;;;;;;;;;;;;;;;12533477;28;19908;-84
2022/05/27 09:28:27;;;;;;;;;;;;;;;;;;12562296;28;19908;-85
2022/05/27 09:34:29;;;;;;;;;;;;;;;;;;12568440;28;20391;-83
2022/05/27 09:40:30;;;;;;;;;;;;;;;;;;12577993;28;19928;-87
2022/05/27 09:46:32;;;;;;;;;;;;;;;;;;12572980;28;19908;-85
2022/05/27 09:52:33;;;;;;;;;;;;;;;;;;12581554;28;19924;-86
2022/05/27 09:58:35;;;;;;;;;;;;;;;;;;12577162;28;20404;-86
2022/05/27 10:04:36;;;;;;;;;;;;;;;;;;12567858;28;20300;-83
2022/05/27 10:10:40;;;;;;;;;;;;;;;;;;12570097;28;19932;-84
2022/05/27 10:16:43;;;;;;;;;;;;;;;;;;12556618;28;20471;-87
2022/05/27 10:22:50;;;;;;;;;;;;;;;;;;12571413;28;19919;-85
2022/05/27 10:28:51;;;;;;;;;;;;;;;;;;12570901;28;19912;-83
2022/05/27 10:34:53;;;;;;;;;;;;;;;;;;12581452;28;19923;-83
2022/05/27 10:40:54;;;;;;;;;;;;;;;;;;12569319;28;19919;-83
2022/05/27 10:46:56;;;;;;;;;;;;;;;;;;12577631;28;19915;-83
2022/05/27 10:52:57;;;;;;;;;;;;;;;;;;12574465;28;20101;-86
2022/05/27 11:05:19;;;;;;;;;;;;;;;;;;12569780;28;19912;-85
2022/05/27 11:11:21;;;;;;;;;;;;;;;;;;12568132;28;19921;-84
2022/05/27 11:17:22;;;;;;;;;;;;;;;;;;12566953;28;20292;-83
2022/05/27 11:23:24;;;;;;;;;;;;;;;;;;12578518;28;19908;-83
2022/05/27 11:29:25;;;;;;;;;;;;;;;;;;12553754;28;19917;-83
2022/05/27 11:35:26;;;;;;;;;;;;;;;;;;12530227;28;20381;-83
2022/05/27 11:41:28;;;;;;;;;;;;;;;;;;12531664;28;19926;-84
2022/05/27 11:47:31;;;;;;;;;;;;;;;;;;12579161;28;19916;-83
2022/05/27 11:53:32;;;;;;;;;;;;;;;;;;12546409;28;19917;-83
2022/05/27 11:59:34;;;;;;;;;;;;;;;;;;12546167;28;19908;-80
2022/05/27 12:05:36;;;;;;;;;;;;;;;;;;12531823;28;20286;-80
2022/05/27 12:11:37;;;;;;;;;;;;;;;;;;12511892;28;20286;-80
2022/05/27 12:17:40;;;;;;;;;;;;;;;;;;12546034;28;19912;-81
2022/05/27 12:23:41;;;;;;;;;;;;;;;;;;12545933;28;19909;-79
2022/05/27 12:29:43;;;;;;;;;;;;;;;;;;12545330;28;19917;-79
2022/05/27 12:35:47;;;;;;;;;;;;;;;;;;12545791;28;19920;-79
2022/05/27 12:41:48;;;;;;;;;;;;;;;;;;12545354;28;19917;-79
2022/05/27 12:47:50;;;;;;;;;;;;;;;;;;12527337;28;19909;-79
2022/05/27 12:53:52;;;;;;;;;;;;;;;;;;12526969;28;19943;-79
2022/05/27 13:06:14;;;;;;;;;;;;;;;;;;12544860;28;19916;-79
2022/05/27 13:12:15;;;;;;;;;;;;;;;;;;12526194;28;19928;-79
2022/05/27 13:18:17;;;;;;;;;;;;;;;;;;12544199;28;19908;-80
2022/05/27 13:24:18;;;;;;;;;;;;;;;;;;12543290;28;19919;-79
2022/05/27 13:30:20;;;;;;;;;;;;;;;;;;12543469;28;19924;-79
2022/05/27 13:36:21;;;;;;;;;;;;;;;;;;12525290;28;20281;-79
2022/05/27 13:42:23;;;;;;;;;;;;;;;;;;12542953;28;19908;-79
2022/05/27 13:48:25;;;;;;;;;;;;;;;;;;12525233;28;20273;-79
2022/05/27 13:54:27;;;;;;;;;;;;;;;;;;12525449;28;20399;-79
2022/05/27 14:00:28;;;;;;;;;;;;;;;;;;12543137;28;19912;-79
2022/05/27 14:06:30;;;;;;;;;;;;;;;;;;12542900;28;19912;-79
2022/05/27 14:12:34;;;;;;;;;;;;;;;;;;12542697;28;19916;-80
2022/05/27 14:18:35;;;;;;;;;;;;;;;;;;12529954;28;20320;-80
2022/05/27 14:24:37;;;;;;;;;;;;;;;;;;12520736;28;19916;-80
2022/05/27 14:30:38;;;;;;;;;;;;;;;;;;12533443;28;19925;-79
2022/05/27 14:37:00;;;;;;;;;;;;;;;;;;12535377;28;20361;-80
2022/05/27 14:43:01;;;;;;;;;;;;;;;;;;12550546;28;19908;-80
2022/05/27 14:49:03;;;;;;;;;;;;;;;;;;12516289;28;19915;-80
2022/05/27 14:55:04;;;;;;;;;;;;;;;;;;12549800;28;19924;-80
2022/05/27 15:01:07;;;;;;;;;;;;;;;;;;12549545;28;19916;-80
2022/05/27 15:07:10;;;;;;;;;;;;;;;;;;12549089;28;19913;-80
2022/05/27 15:13:11;;;;;;;;;;;;;;;;;;12531229;28;20369;-80
2022/05/27 15:19:13;;;;;;;;;;;;;;;;;;12549100;28;19908;-80
2022/05/27 15:25:14;;;;;;;;;;;;;;;;;;12548543;28;19909;-80
2022/05/27 15:37:36;;;;;;;;;;;;;;;;;;12547881;28;19928;-79
2022/05/27 15:43:38;;;;;;;;;;;;;;;;;;12530069;28;19908;-80
2022/05/27 15:49:39;;;;;;;;;;;;;;;;;;12547258;28;19912;-80
2022/05/27 15:55:41;;;;;;;;;;;;;;;;;;12513101;28;19909;-80
2022/05/27 16:01:43;;;;;;;;;;;;;;;;;;12530094;28;20349;-80
2022/05/27 16:07:45;;;;;;;;;;;;;;;;;;12512501;28;20384;-80
2022/05/27 16:13:47;;;;;;;;;;;;;;;;;;12528414;28;19917;-80
2022/05/27 16:19:49;;;;;;;;;;;;;;;;;;12528086;28;19912;-80
2022/05/27 16:25:50;;;;;;;;;;;;;;;;;;12545394;28;19913;-80
2022/05/27 16:31:52;;;;;;;;;;;;;;;;;;12528026;28;19924;-80
2022/05/27 16:37:53;;;;;;;;;;;;;;;;;;12590156;28;19909;-80
2022/05/27 16:43:55;;;;;;;;;;;;;;;;;;12575005;28;19909;-80
2022/05/27 16:49:56;;;;;;;;;;;;;;;;;;12575884;28;19919;-79
2022/05/27 16:55:58;;;;;;;;;;;;;;;;;;12576512;28;19909;-79
2022/05/27 17:01:59;;;;;;;;;;;;;;;;;;12593466;28;19912;-79
2022/05/27 17:08:01;;;;;;;;;;;;;;;;;;12594100;28;19908;-80
2022/05/27 17:14:02;;;;;;;;;;;;;;;;;;12593682;28;19924;-79
2022/05/27 17:20:04;;;;;;;;;;;;;;;;;;12593755;28;19915;-79
2022/05/27 17:26:05;;;;;;;;;;;;;;;;;;12593437;28;19908;-79
2022/05/27 17:32:07;;;;;;;;;;;;;;;;;;12593235;28;19920;-79
2022/05/27 17:38:09;;;;;;;;;;;;;;;;;;12593442;28;19912;-78
2022/05/27 17:44:10;;;;;;;;;;;;;;;;;;12575428;28;19909;-78
2022/05/27 17:56:32;;;;;;;;;;;;;;;;;;12584714;28;19916;-77
2022/05/27 18:02:35;;;;;;;;;;;;;;;;;;12602600;28;19912;-78
2022/05/27 18:08:36;;;;;;;;;;;;;;;;;;12601631;28;19908;-79
2022/05/27 18:14:38;;;;;;;;;;;;;;;;;;12601350;28;19916;-78
2022/05/27 18:20:39;;;;;;;;;;;;;;;;;;12601936;28;19912;-78
2022/05/27 18:26:40;;;;;;;;;;;;;;;;;;12583253;28;19909;-79
2022/05/27 18:32:42;;;;;;;;;;;;;;;;;;12582830;28;19928;-78
2022/05/27 18:38:51;;;;;;;;;;;;;;;;;;12600667;28;20403;-78
2022/05/27 18:44:52;;;;;;;;;;;;;;;;;;12582535;28;19960;-79
2022/05/27 18:50:54;;;;;;;;;;;;;;;;;;12599889;28;19916;-79
2022/05/27 18:56:56;;;;;;;;;;;;;;;;;;12565308;28;19916;-79
2022/05/27 19:02:57;;;;;;;;;;;;;;;;;;12598715;28;19913;-79
2022/05/27 19:09:00;;;;;;;;;;;;;;;;;;12564524;28;20336;-80
2022/05/27 19:15:01;;;;;;;;;;;;;;;;;;12598803;28;19924;-79
2022/05/27 19:21:18;;;;;;;;;;;;;;;;;;12580623;28;20389;-79
2022/05/27 19:27:21;;;;;;;;;;;;;;;;;;12580451;28;19908;-79
2022/05/27 19:33:22;;;;;;;;;;;;;;;;;;12579599;28;19920;-78
2022/05/27 19:39:24;;;;;;;;;;;;;;;;;;12596976;28;19908;-79
2022/05/27 19:45:25;;;;;;;;;;;;;;;;;;12579291;28;19959;-79
2022/05/27 19:51:26;;;;;;;;;;;;;;;;;;12578784;28;19916;-79
2022/05/27 20:10:08;;;;;;;;;;;;;;;;;;12595885;28;20259;-79
2022/05/27 20:16:10;;;;;;;;;;;;;;;;;;12595554;28;19909;-79
2022/05/27 20:22:11;;;;;;;;;;;;;;;;;;12578587;28;20353;-79
2022/05/27 20:28:13;;;;;;;;;;;;;;;;;;12595164;28;19908;-79
2022/05/27 20:34:14;;;;;;;;;;;;;;;;;;12577013;28;19924;-79
2022/05/27 20:40:16;;;;;;;;;;;;;;;;;;12575823;28;19908;-79
2022/05/27 20:46:18;;;;;;;;;;;;;;;;;;12536118;28;19912;-79
2022/05/27 20:52:20;;;;;;;;;;;;;;;;;;12544512;28;19943;-79
2022/05/27 20:58:21;;;;;;;;;;;;;;;;;;12526959;28;19908;-79
2022/05/27 21:04:23;;;;;;;;;;;;;;;;;;12545185;28;20392;-79
2022/05/27 21:10:24;;;;;;;;;;;;;;;;;;12526559;28;19924;-79
2022/05/27 21:16:26;;;;;;;;;;;;;;;;;;12526458;28;19927;-79
2022/05/27 21:22:28;;;;;;;;;;;;;;;;;;12526472;28;20368;-79
2022/05/27 21:28:30;;;;;;;;;;;;;;;;;;12531918;28;19920;-79
2022/05/27 21:34:32;;;;;;;;;;;;;;;;;;12536233;28;19925;-79
2022/05/27 21:40:34;;;;;;;;;;;;;;;;;;12535878;28;19916;-79
2022/05/27 21:46:35;;;;;;;;;;;;;;;;;;12553659;28;19908;-79
2022/05/27 21:52:37;;;;;;;;;;;;;;;;;;12554575;28;20241;-79
2022/05/27 21:58:38;;;;;;;;;;;;;;;;;;12534961;28;19919;-79
2022/05/27 22:04:40;;;;;;;;;;;;;;;;;;12553408;28;19917;-79
2022/05/27 22:17:02;;;;;;;;;;;;;;;;;;12533511;28;19908;-79
2022/05/27 22:23:03;;;;;;;;;;;;;;;;;;12517189;28;19909;-79
2022/05/27 22:29:05;;;;;;;;;;;;;;;;;;12534274;28;19915;-79
2022/05/27 22:35:07;;;;;;;;;;;;;;;;;;12552305;28;20285;-79
2022/05/27 22:41:08;;;;;;;;;;;;;;;;;;12551646;28;19943;-79
2022/05/27 22:47:10;;;;;;;;;;;;;;;;;;12517501;28;19909;-79
2022/05/27 22:53:12;;;;;;;;;;;;;;;;;;12533519;28;19917;-78
2022/05/27 22:59:13;;;;;;;;;;;;;;;;;;12551060;28;20385;-79
2022/05/27 23:05:14;;;;;;;;;;;;;;;;;;12551437;28;20285;-78
2022/05/27 23:11:16;;;;;;;;;;;;;;;;;;12516094;28;19924;-79
2022/05/27 23:23:38;;;;;;;;;;;;;;;;;;12550047;28;19916;-78
2022/05/27 23:29:39;;;;;;;;;;;;;;;;;;12549682;28;19919;-79
2022/05/27 23:35:41;;;;;;;;;;;;;;;;;;12530919;28;19920;-79
2022/05/27 23:41:42;;;;;;;;;;;;;;;;;;12548672;28;19908;-79
2022/05/27 23:47:44;;;;;;;;;;;;;;;;;;12530787;28;19916;-79
2022/05/27 23:53:46;;;;;;;;;;;;;;;;;;12529656;28;19928;-78
2022/05/27 23:59:48;;;;;;;;;;;;;;;;;;12547643;28;20289;-79
